Time;durP1;ratioP1;P1;durP2;ratioP2;P2;SDS_P1;SDS_P2;PMS_P1;PMS_P2;Temp;Humidity;BMP_temperature;BMP_pressure;BME280_temperature;BME280_humidity;BME280_pressure;Samples;Min_cycle;Max_cycle;Signal;HPM_P1;HPM_P2
2022/10/20 00:01:48;;;;;;;8.75;2.50;;;;;;;;;;6330405;22;20102;-58
2022/10/20 00:04:22;;;;;;;4.20;2.63;;;;;;;;;;6333538;22;20029;-58
2022/10/20 00:06:49;;;;;;;3.50;2.47;;;;;;;;;;6332973;22;20022;-58
2022/10/20 00:09:17;;;;;;;6.57;2.40;;;;;;;;;;6332367;22;20025;-61
2022/10/20 00:11:50;;;;;;;8.15;2.80;;;;;;;;;;6331121;22;20102;-45
2022/10/20 00:14:17;;;;;;;7.05;2.60;;;;;;;;;;6332189;22;20025;-49
2022/10/20 00:17:05;;;;;;;4.50;2.50;;;;;;;;;;6330681;22;20375;-47
2022/10/20 00:19:32;;;;;;;5.57;2.63;;;;;;;;;;6331143;22;20026;-47
2022/10/20 00:22:06;;;;;;;6.70;2.72;;;;;;;;;;6306111;22;20021;-45
2022/10/20 00:24:33;;;;;;;5.22;2.40;;;;;;;;;;6331131;22;20023;-50
2022/10/20 00:27:00;;;;;;;7.15;2.65;;;;;;;;;;6332553;22;20347;-47
2022/10/20 00:29:34;;;;;;;8.60;3.10;;;;;;;;;;6331618;22;20551;-59
2022/10/20 00:32:01;;;;;;;5.93;2.70;;;;;;;;;;6332664;22;20629;-57
2022/10/20 00:34:35;;;;;;;3.85;2.53;;;;;;;;;;6331145;22;20015;-60
2022/10/20 00:37:03;;;;;;;6.65;2.75;;;;;;;;;;6332395;22;20098;-59
2022/10/20 00:39:30;;;;;;;6.60;2.85;;;;;;;;;;6332559;22;20021;-59
2022/10/20 00:42:04;;;;;;;5.78;2.67;;;;;;;;;;6332667;22;20015;-59
2022/10/20 00:44:47;;;;;;;5.60;2.75;;;;;;;;;;6331792;22;20203;-59
2022/10/20 00:47:24;;;;;;;7.82;2.65;;;;;;;;;;6333406;22;20031;-59
2022/10/20 00:49:52;;;;;;;6.20;2.80;;;;;;;;;;6332173;22;20023;-59
2022/10/20 00:52:25;;;;;;;8.82;2.95;;;;;;;;;;6332281;22;20098;-59
2022/10/20 00:55:04;;;;;;;5.63;2.63;;;;;;;;;;6331605;22;20076;-59
2022/10/20 00:57:38;;;;;;;3.90;2.97;;;;;;;;;;6329634;22;20019;-59
2022/10/20 01:00:07;;;;;;;6.78;3.08;;;;;;;;;;6331371;22;20023;-59
2022/10/20 01:02:35;;;;;;;7.22;3.65;;;;;;;;;;6331530;22;20022;-59
2022/10/20 01:05:08;;;;;;;9.63;3.90;;;;;;;;;;6330359;22;20029;-59
2022/10/20 01:07:35;;;;;;;7.43;3.83;;;;;;;;;;6332056;22;20098;-59
2022/10/20 01:10:11;;;;;;;7.15;3.47;;;;;;;;;;6331859;22;20101;-59
2022/10/20 01:12:41;;;;;;;5.40;3.25;;;;;;;;;;6331705;22;20405;-59
2022/10/20 01:15:18;;;;;;;5.57;3.00;;;;;;;;;;6330909;22;20113;-59
2022/10/20 01:18:06;;;;;;;6.35;3.20;;;;;;;;;;6331591;22;20015;-59
2022/10/20 01:20:46;;;;;;;7.18;3.33;;;;;;;;;;6328933;22;20026;-60
2022/10/20 01:23:22;;;;;;;9.20;3.60;;;;;;;;;;6331161;22;20105;-59
2022/10/20 01:25:50;;;;;;;6.72;3.20;;;;;;;;;;6331799;22;20023;-60
2022/10/20 01:28:17;;;;;;;11.00;3.90;;;;;;;;;;6330921;22;20468;-46
2022/10/20 01:30:55;;;;;;;7.85;3.70;;;;;;;;;;6331653;22;20015;-47
2022/10/20 01:33:48;;;;;;;9.02;3.50;;;;;;;;;;6330422;22;20554;-46
2022/10/20 01:36:18;;;;;;;10.73;4.22;;;;;;;;;;6331204;22;20029;-49
2022/10/20 01:38:54;;;;;;;8.52;4.30;;;;;;;;;;6329681;22;20040;-47
2022/10/20 01:41:35;;;;;;;8.85;4.10;;;;;;;;;;6330941;22;20106;-47
2022/10/20 01:44:11;;;;;;;9.68;3.80;;;;;;;;;;6330328;22;20349;-61
2022/10/20 01:46:39;;;;;;;7.07;3.60;;;;;;;;;;6331157;22;20033;-49
2022/10/20 01:49:14;;;;;;;8.55;3.92;;;;;;;;;;6331955;22;20029;-48
2022/10/20 01:51:41;;;;;;;9.38;3.97;;;;;;;;;;6330327;22;20021;-48
2022/10/20 01:54:23;;;;;;;9.25;3.75;;;;;;;;;;6330161;22;20478;-46
2022/10/20 01:57:09;;;;;;;7.00;3.65;;;;;;;;;;6332141;22;20329;-47
2022/10/20 01:59:51;;;;;;;8.27;4.07;;;;;;;;;;6331992;22;20069;-47
2022/10/20 02:02:39;;;;;;;7.80;4.28;;;;;;;;;;6332885;22;20097;-47
2022/10/20 02:05:12;;;;;;;11.45;4.20;;;;;;;;;;6331877;22;20655;-60
2022/10/20 02:07:46;;;;;;;7.88;4.03;;;;;;;;;;6332180;22;20497;-59
2022/10/20 02:10:29;;;;;;;5.85;3.47;;;;;;;;;;6331018;22;20025;-59
2022/10/20 02:13:05;;;;;;;9.77;4.40;;;;;;;;;;6330824;22;20029;-58
2022/10/20 02:15:36;;;;;;;7.95;4.05;;;;;;;;;;6330933;22;20114;-59
2022/10/20 02:18:21;;;;;;;13.05;4.32;;;;;;;;;;6330634;22;20093;-59
2022/10/20 02:20:49;;;;;;;11.88;4.32;;;;;;;;;;6330854;22;20015;-49
2022/10/20 02:23:23;;;;;;;9.32;4.25;;;;;;;;;;6330370;22;20355;-60
2022/10/20 02:25:52;;;;;;;12.07;4.32;;;;;;;;;;6331226;22;20094;-59
2022/10/20 02:28:36;;;;;;;8.27;4.25;;;;;;;;;;6329338;22;20041;-59
2022/10/20 02:31:04;;;;;;;5.57;3.87;;;;;;;;;;6330057;22;20023;-59
2022/10/20 02:33:38;;;;;;;9.57;4.47;;;;;;;;;;6334418;22;20029;-59
2022/10/20 02:36:06;;;;;;;8.13;3.85;;;;;;;;;;6333900;22;20134;-60
2022/10/20 02:38:33;;;;;;;10.23;4.20;;;;;;;;;;6332614;22;20023;-60
2022/10/20 02:41:06;;;;;;;8.60;4.32;;;;;;;;;;6333589;22;20018;-58
2022/10/20 02:43:34;;;;;;;12.70;4.20;;;;;;;;;;6333149;22;20530;-48
2022/10/20 02:46:07;;;;;;;10.45;3.85;;;;;;;;;;6333616;22;20029;-45
2022/10/20 02:48:37;;;;;;;13.40;3.47;;;;;;;;;;6333703;22;20030;-46
2022/10/20 02:51:05;;;;;;;5.82;3.75;;;;;;;;;;6333330;22;20487;-45
2022/10/20 02:53:38;;;;;;;10.02;3.80;;;;;;;;;;6333018;22;20539;-49
2022/10/20 02:56:06;;;;;;;8.18;3.70;;;;;;;;;;6333717;22;20105;-48
2022/10/20 02:58:33;;;;;;;7.28;3.67;;;;;;;;;;6333661;22;20029;-48
2022/10/20 03:01:06;;;;;;;11.13;3.80;;;;;;;;;;6332935;22;20029;-59
2022/10/20 03:03:33;;;;;;;8.52;3.42;;;;;;;;;;6331874;22;20023;-60
2022/10/20 03:06:09;;;;;;;9.55;3.78;;;;;;;;;;6332852;22;20367;-61
2022/10/20 03:08:36;;;;;;;6.68;3.13;;;;;;;;;;6331454;22;20698;-60
2022/10/20 03:11:03;;;;;;;7.55;4.22;;;;;;;;;;6333208;22;20526;-61
2022/10/20 03:13:37;;;;;;;6.85;3.63;;;;;;;;;;6333454;22;20118;-61
2022/10/20 03:16:05;;;;;;;5.85;3.33;;;;;;;;;;6334021;22;20029;-61
2022/10/20 03:18:32;;;;;;;6.70;3.35;;;;;;;;;;6333226;22;20018;-60
2022/10/20 03:21:06;;;;;;;7.63;3.78;;;;;;;;;;6333003;22;20018;-60
2022/10/20 03:23:33;;;;;;;8.27;3.40;;;;;;;;;;6332896;22;20018;-47
2022/10/20 03:26:09;;;;;;;5.43;3.20;;;;;;;;;;6332918;22;20033;-48
2022/10/20 03:28:37;;;;;;;7.97;2.65;;;;;;;;;;6333423;22;20025;-52
2022/10/20 03:31:04;;;;;;;3.85;2.97;;;;;;;;;;6334324;22;20019;-48
2022/10/20 03:33:37;;;;;;;6.10;3.45;;;;;;;;;;6332720;22;20555;-49
2022/10/20 03:36:05;;;;;;;8.05;3.10;;;;;;;;;;6332932;22;20423;-49
2022/10/20 03:38:32;;;;;;;4.07;2.63;;;;;;;;;;6333018;22;20018;-49
2022/10/20 03:41:05;;;;;;;6.07;3.35;;;;;;;;;;6332384;22;20033;-46
2022/10/20 03:43:32;;;;;;;7.38;3.70;;;;;;;;;;6334188;22;20098;-50
2022/10/20 03:46:09;;;;;;;4.35;3.00;;;;;;;;;;6331572;22;20030;-47
2022/10/20 03:48:36;;;;;;;5.72;3.60;;;;;;;;;;6333509;22;20014;-48
2022/10/20 03:51:03;;;;;;;;;;;;;;;;;;6333822;22;20086;-47
2022/10/20 03:53:37;;;;;;;8.30;3.45;;;;;;;;;;6331564;22;19919;-49
2022/10/20 03:56:05;;;;;;;5.75;3.55;;;;;;;;;;6330493;22;20359;-60
2022/10/20 03:58:33;;;;;;;7.60;3.40;;;;;;;;;;6332629;22;20434;-46
2022/10/20 04:01:08;;;;;;;5.60;3.10;;;;;;;;;;6332712;22;20021;-60
2022/10/20 04:03:35;;;;;;;5.38;3.33;;;;;;;;;;6332754;22;20033;-60
2022/10/20 04:06:08;;;;;;;8.80;4.10;;;;;;;;;;6333445;22;20027;-60
2022/10/20 04:08:35;;;;;;;7.47;3.60;;;;;;;;;;6332536;22;20022;-60
2022/10/20 04:11:03;;;;;;;7.43;4.00;;;;;;;;;;6332510;22;20026;-60
2022/10/20 04:13:36;;;;;;;7.65;3.17;;;;;;;;;;6333474;22;20078;-60
2022/10/20 04:16:04;;;;;;;9.40;3.85;;;;;;;;;;6332056;22;20027;-60
2022/10/20 04:18:31;;;;;;;9.05;3.53;;;;;;;;;;6331666;22;20419;-59
2022/10/20 04:21:12;;;;;;;12.40;4.35;;;;;;;;;;6306026;22;20021;-59
2022/10/20 04:23:39;;;;;;;8.05;4.50;;;;;;;;;;6332623;22;20027;-59
2022/10/20 04:26:15;;;;;;;7.30;4.20;;;;;;;;;;6331055;22;20094;-59
2022/10/20 04:28:42;;;;;;;8.65;4.63;;;;;;;;;;6331489;22;20535;-59
2022/10/20 04:31:09;;;;;;;11.00;4.22;;;;;;;;;;6331953;22;20019;-59
2022/10/20 04:33:43;;;;;;;14.10;4.97;;;;;;;;;;6305480;22;20019;-59
2022/10/20 04:36:12;;;;;;;9.15;4.10;;;;;;;;;;6332219;22;20025;-60
2022/10/20 04:38:46;;;;;;;7.38;3.92;;;;;;;;;;6331739;22;20352;-59
2022/10/20 04:41:14;;;;;;;5.60;3.60;;;;;;;;;;6330978;22;20014;-59
2022/10/20 04:43:41;;;;;;;10.90;4.18;;;;;;;;;;6332298;22;20559;-59
2022/10/20 04:46:14;;;;;;;8.55;4.32;;;;;;;;;;6331269;22;20040;-59
2022/10/20 04:48:43;;;;;;;9.05;4.93;;;;;;;;;;6332089;22;20018;-59
2022/10/20 04:51:11;;;;;;;11.65;4.63;;;;;;;;;;6332370;22;20018;-59
2022/10/20 04:53:45;;;;;;;7.60;4.38;;;;;;;;;;6331865;22;20025;-59
2022/10/20 04:56:17;;;;;;;8.05;4.60;;;;;;;;;;6328899;22;20023;-59
2022/10/20 04:58:51;;;;;;;12.43;4.40;;;;;;;;;;6327881;22;20053;-59
2022/10/20 05:01:18;;;;;;;10.55;4.65;;;;;;;;;;6332670;22;20456;-59
2022/10/20 05:03:46;;;;;;;9.73;4.57;;;;;;;;;;6332201;22;20103;-59
2022/10/20 05:06:22;;;;;;;6.72;4.18;;;;;;;;;;6332138;22;20019;-59
2022/10/20 05:08:50;;;;;;;11.73;4.53;;;;;;;;;;6332809;22;20015;-59
2022/10/20 05:11:25;;;;;;;7.22;4.43;;;;;;;;;;6333028;22;20076;-59
2022/10/20 05:14:00;;;;;;;9.48;4.38;;;;;;;;;;6331887;22;20281;-50
2022/10/20 05:16:34;;;;;;;8.02;4.68;;;;;;;;;;6332475;22;20344;-59
2022/10/20 05:19:08;;;;;;;15.50;5.32;;;;;;;;;;6331235;22;20492;-59
2022/10/20 05:21:42;;;;;;;5.18;3.90;;;;;;;;;;6331556;22;20098;-59
2022/10/20 05:24:14;;;;;;;11.45;5.07;;;;;;;;;;6332435;22;20027;-58
2022/10/20 05:26:47;;;;;;;10.55;4.95;;;;;;;;;;6331926;22;20064;-59
2022/10/20 05:29:20;;;;;;;10.57;4.57;;;;;;;;;;6331189;22;20040;-59
2022/10/20 05:31:47;;;;;;;13.70;4.97;;;;;;;;;;6332353;22;20439;-59
2022/10/20 05:34:15;;;;;;;10.60;4.72;;;;;;;;;;6332425;22;20019;-48
2022/10/20 05:36:48;;;;;;;12.20;5.80;;;;;;;;;;6306902;22;20121;-60
2022/10/20 05:39:15;;;;;;;7.53;4.72;;;;;;;;;;6332898;22;20102;-61
2022/10/20 05:41:43;;;;;;;15.10;5.63;;;;;;;;;;6332872;22;20482;-60
2022/10/20 05:44:16;;;;;;;7.50;4.70;;;;;;;;;;6331610;22;20018;-60
2022/10/20 05:46:43;;;;;;;9.77;5.38;;;;;;;;;;6332460;22;20106;-60
2022/10/20 05:49:17;;;;;;;28.23;7.40;;;;;;;;;;6333928;22;20401;-61
2022/10/20 05:51:45;;;;;;;9.80;5.40;;;;;;;;;;6330716;22;20029;-60
2022/10/20 05:54:13;;;;;;;9.60;4.88;;;;;;;;;;6332446;22;20025;-50
2022/10/20 05:56:47;;;;;;;11.63;6.07;;;;;;;;;;6332476;22;20376;-47
2022/10/20 05:59:15;;;;;;;9.07;5.45;;;;;;;;;;6333428;22;20025;-47
2022/10/20 06:01:48;;;;;;;27.10;7.32;;;;;;;;;;6331554;22;20468;-47
2022/10/20 06:04:22;;;;;;;11.13;4.95;;;;;;;;;;6331243;22;20093;-47
2022/10/20 06:06:53;;;;;;;11.50;5.70;;;;;;;;;;6331431;22;20468;-47
2022/10/20 06:09:27;;;;;;;10.23;5.53;;;;;;;;;;6331879;22;20026;-59
2022/10/20 06:11:54;;;;;;;16.50;5.65;;;;;;;;;;6329330;22;20351;-46
2022/10/20 06:14:28;;;;;;;6.72;4.78;;;;;;;;;;6333108;22;20030;-47
2022/10/20 06:16:56;;;;;;;9.80;5.78;;;;;;;;;;6330496;22;20468;-51
2022/10/20 06:19:23;;;;;;;;;;;;;;;;;;6331570;22;20513;-47
2022/10/20 06:22:04;;;;;;;10.52;4.78;;;;;;;;;;6332704;22;19918;-51
2022/10/20 06:24:33;;;;;;;8.73;5.28;;;;;;;;;;6331770;22;20097;-51
2022/10/20 06:27:07;;;;;;;16.58;5.97;;;;;;;;;;6331561;22;20023;-47
2022/10/20 06:29:34;;;;;;;;;;;;;;;;;;6332942;22;20045;-59
2022/10/20 06:32:01;;;;;;;12.02;6.10;;;;;;;;;;6331850;22;19921;-55
2022/10/20 06:34:34;;;;;;;7.80;4.72;;;;;;;;;;6331300;22;20087;-47
2022/10/20 06:37:01;;;;;;;108.43;9.07;;;;;;;;;;6332451;22;20019;-47
2022/10/20 06:39:35;;;;;;;229.02;12.98;;;;;;;;;;6331085;22;20026;-49
2022/10/20 06:42:04;;;;;;;288.98;13.80;;;;;;;;;;6331777;22;20019;-46
2022/10/20 06:44:37;;;;;;;19.67;6.07;;;;;;;;;;6331558;22;20369;-47
2022/10/20 06:47:11;;;;;;;15.63;5.18;;;;;;;;;;6330084;22;20478;-46
2022/10/20 06:49:39;;;;;;;9.07;4.90;;;;;;;;;;6332607;22;20093;-60
2022/10/20 06:52:06;;;;;;;156.57;10.07;;;;;;;;;;6332207;22;20023;-60
2022/10/20 06:54:39;;;;;;;88.47;8.32;;;;;;;;;;6331428;22;20015;-60
2022/10/20 06:57:06;;;;;;;7.78;3.83;;;;;;;;;;6332777;22;20041;-59
2022/10/20 06:59:34;;;;;;;7.20;3.80;;;;;;;;;;6333064;22;20046;-59
2022/10/20 07:02:09;;;;;;;12.18;4.50;;;;;;;;;;6330915;22;20110;-60
2022/10/20 07:04:37;;;;;;;6.70;4.50;;;;;;;;;;6331311;22;20464;-60
2022/10/20 07:07:10;;;;;;;8.10;3.42;;;;;;;;;;6332835;22;20062;-59
2022/10/20 07:09:37;;;;;;;6.13;3.60;;;;;;;;;;6331533;22;20029;-47
2022/10/20 07:12:11;;;;;;;7.43;4.40;;;;;;;;;;6333176;22;20021;-60
2022/10/20 07:14:38;;;;;;;7.50;4.65;;;;;;;;;;6332606;22;20051;-60
2022/10/20 07:17:12;;;;;;;8.57;4.63;;;;;;;;;;6329663;22;20023;-60
2022/10/20 07:19:46;;;;;;;6.45;4.05;;;;;;;;;;6333368;22;20025;-60
2022/10/20 07:22:19;;;;;;;6.25;4.32;;;;;;;;;;6334380;22;20019;-60
2022/10/20 07:24:46;;;;;;;9.00;3.72;;;;;;;;;;6332231;22;20018;-60
2022/10/20 07:27:20;;;;;;;10.43;3.33;;;;;;;;;;6335250;22;20041;-60
2022/10/20 07:30:04;;;;;;;5.80;3.90;;;;;;;;;;6332970;22;20055;-47
2022/10/20 07:32:35;;;;;;;6.22;4.22;;;;;;;;;;6331207;22;20090;-50
2022/10/20 07:35:09;;;;;;;7.97;4.13;;;;;;;;;;6332263;22;20018;-51
2022/10/20 07:37:37;;;;;;;4.60;2.92;;;;;;;;;;6332322;22;20023;-51
2022/10/20 07:40:05;;;;;;;6.47;3.83;;;;;;;;;;6333371;22;20022;-47
2022/10/20 07:42:39;;;;;;;9.32;4.03;;;;;;;;;;6333080;22;20101;-49
2022/10/20 07:45:06;;;;;;;6.65;3.58;;;;;;;;;;6332117;22;20486;-61
2022/10/20 07:47:33;;;;;;;;;;;;;;;;;;6332542;22;20198;-62
2022/10/20 07:50:11;;;;;;;7.07;3.92;;;;;;;;;;6334758;22;20016;-60
2022/10/20 07:52:38;;;;;;;;;;;;;;;;;;6333243;22;20099;-61
2022/10/20 07:55:12;;;;;;;11.68;4.10;;;;;;;;;;6333476;22;19921;-61
2022/10/20 07:57:59;;;;;;;14.00;4.40;;;;;;;;;;6334294;22;20018;-61
2022/10/20 08:00:34;;;;;;;7.60;3.78;;;;;;;;;;6331379;22;20035;-61
2022/10/20 08:03:01;;;;;;;7.47;4.07;;;;;;;;;;6332373;22;20804;-60
2022/10/20 08:05:28;;;;;;;7.35;4.03;;;;;;;;;;6333338;22;20029;-60
2022/10/20 08:08:01;;;;;;;9.68;4.57;;;;;;;;;;6333756;22;20023;-49
2022/10/20 08:10:28;;;;;;;12.05;4.00;;;;;;;;;;6334302;22;20098;-52
2022/10/20 08:12:57;;;;;;;7.68;3.40;;;;;;;;;;6333583;22;20023;-47
2022/10/20 08:15:30;;;;;;;10.75;3.95;;;;;;;;;;6306977;22;20025;-48
2022/10/20 08:18:12;;;;;;;8.63;4.63;;;;;;;;;;6305894;22;20022;-50
2022/10/20 08:20:47;;;;;;;10.57;4.28;;;;;;;;;;6331515;22;20019;-48
2022/10/20 08:23:16;;;;;;;6.97;3.83;;;;;;;;;;6328458;22;20027;-61
2022/10/20 08:25:43;;;;;;;10.95;4.43;;;;;;;;;;6329783;22;20026;-61
2022/10/20 08:28:17;;;;;;;10.73;4.65;;;;;;;;;;6333269;22;20026;-60
2022/10/20 08:30:49;;;;;;;11.10;4.20;;;;;;;;;;6331054;22;20464;-59
2022/10/20 08:33:24;;;;;;;9.85;4.20;;;;;;;;;;6333513;22;20023;-60
2022/10/20 08:35:51;;;;;;;9.88;4.50;;;;;;;;;;6333504;22;20458;-60
2022/10/20 08:38:18;;;;;;;6.70;4.55;;;;;;;;;;6333253;22;20093;-60
2022/10/20 08:40:51;;;;;;;9.40;4.53;;;;;;;;;;6331406;22;20356;-60
2022/10/20 08:43:20;;;;;;;8.88;4.50;;;;;;;;;;6332532;22;20023;-61
2022/10/20 08:45:53;;;;;;;5.85;3.58;;;;;;;;;;6331787;22;20019;-60
2022/10/20 08:48:24;;;;;;;6.80;3.67;;;;;;;;;;6331970;22;20344;-61
2022/10/20 08:51:20;;;;;;;8.45;3.28;;;;;;;;;;6332220;22;20087;-60
2022/10/20 08:53:48;;;;;;;7.43;3.22;;;;;;;;;;6331015;22;20481;-60
2022/10/20 08:56:24;;;;;;;8.48;2.70;;;;;;;;;;6332754;22;20015;-60
2022/10/20 08:59:02;;;;;;;7.05;3.17;;;;;;;;;;6332778;22;20026;-60
2022/10/20 09:01:35;;;;;;;6.88;3.22;;;;;;;;;;6331165;22;20019;-61
2022/10/20 09:04:03;;;;;;;;;;;;;;;;;;6332780;22;20385;-60
2022/10/20 09:06:30;;;;;;;5.45;2.88;;;;;;;;;;6330987;22;19921;-60
2022/10/20 09:09:04;;;;;;;4.72;2.35;;;;;;;;;;6332359;22;20026;-61
2022/10/20 09:11:35;;;;;;;4.95;2.80;;;;;;;;;;6332852;22;20484;-61
2022/10/20 09:14:13;;;;;;;8.82;2.70;;;;;;;;;;6331838;22;20025;-60
2022/10/20 09:16:41;;;;;;;4.72;2.00;;;;;;;;;;6332664;22;20041;-61
2022/10/20 09:19:39;;;;;;;6.82;2.10;;;;;;;;;;6332595;22;20050;-60
2022/10/20 09:22:14;;;;;;;3.33;1.92;;;;;;;;;;6332406;22;20025;-47
2022/10/20 09:24:48;;;;;;;2.45;1.95;;;;;;;;;;6331995;22;20045;-48
2022/10/20 09:27:38;;;;;;;4.20;2.10;;;;;;;;;;6332073;22;20094;-50
2022/10/20 09:30:17;;;;;;;3.55;2.10;;;;;;;;;;6332274;22;20025;-48
2022/10/20 09:32:44;;;;;;;6.07;2.25;;;;;;;;;;6332075;22;20094;-46
2022/10/20 09:35:20;;;;;;;6.10;1.65;;;;;;;;;;6331891;22;20392;-46
2022/10/20 09:37:52;;;;;;;5.18;2.03;;;;;;;;;;6331693;22;20026;-51
2022/10/20 09:40:27;;;;;;;3.20;1.60;;;;;;;;;;6331669;22;20029;-60
2022/10/20 09:43:14;;;;;;;3.50;1.58;;;;;;;;;;6332246;22;20018;-61
2022/10/20 09:45:53;;;;;;;4.13;1.55;;;;;;;;;;6331197;22;20094;-61
2022/10/20 09:48:38;;;;;;;3.65;1.52;;;;;;;;;;6332061;22;20117;-61
2022/10/20 09:51:16;;;;;;;3.38;1.90;;;;;;;;;;6331837;22;20758;-61
2022/10/20 09:53:49;;;;;;;4.68;1.42;;;;;;;;;;6331990;22;20098;-61
2022/10/20 09:56:28;;;;;;;2.05;1.00;;;;;;;;;;6332768;22;20022;-60
2022/10/20 09:58:56;;;;;;;1.80;1.10;;;;;;;;;;6331756;22;20022;-60
2022/10/20 10:01:30;;;;;;;3.97;1.20;;;;;;;;;;6332828;22;20098;-60
2022/10/20 10:04:00;;;;;;;2.65;1.10;;;;;;;;;;6331493;22;20027;-60
2022/10/20 10:06:37;;;;;;;1.85;1.15;;;;;;;;;;6332619;22;20405;-60
2022/10/20 10:09:24;;;;;;;3.28;1.30;;;;;;;;;;6331667;22;20026;-60
2022/10/20 10:11:59;;;;;;;3.50;1.30;;;;;;;;;;6329320;22;20468;-61
2022/10/20 10:15:08;;;;;;;4.18;1.38;;;;;;;;;;6303480;22;20023;-60
2022/10/20 10:17:42;;;;;;;2.38;1.10;;;;;;;;;;6329739;22;20065;-60
2022/10/20 10:20:35;;;;;;;3.28;1.13;;;;;;;;;;6331998;22;20094;-60
2022/10/20 10:23:16;;;;;;;2.05;0.90;;;;;;;;;;6332032;22;20097;-60
2022/10/20 10:25:43;;;;;;;2.47;1.30;;;;;;;;;;6330292;22;20023;-60
2022/10/20 10:28:23;;;;;;;3.33;1.10;;;;;;;;;;6329784;22;20027;-60
2022/10/20 10:31:10;;;;;;;1.05;0.98;;;;;;;;;;6331098;22;20015;-60
2022/10/20 10:33:45;;;;;;;2.13;1.35;;;;;;;;;;6331021;22;20023;-60
2022/10/20 10:36:38;;;;;;;2.30;1.23;;;;;;;;;;6330206;22;20098;-61
2022/10/20 10:39:14;;;;;;;1.70;0.98;;;;;;;;;;6331936;22;20019;-61
2022/10/20 10:42:00;;;;;;;1.65;1.02;;;;;;;;;;6331801;22;20041;-52
2022/10/20 10:44:46;;;;;;;4.05;1.27;;;;;;;;;;6329455;22;20386;-51
2022/10/20 10:47:25;;;;;;;5.10;1.10;;;;;;;;;;6331935;22;20023;-50
2022/10/20 10:50:07;;;;;;;2.00;1.20;;;;;;;;;;6331804;22;20098;-49
2022/10/20 10:52:45;;;;;;;1.85;0.95;;;;;;;;;;6332069;22;20023;-48
2022/10/20 10:55:25;;;;;;;4.10;1.35;;;;;;;;;;6333188;22;20196;-52
2022/10/20 10:58:15;;;;;;;3.42;1.30;;;;;;;;;;6332670;22;20025;-61
2022/10/20 11:01:07;;;;;;;3.17;1.50;;;;;;;;;;6333193;22;20025;-51
2022/10/20 11:03:43;;;;;;;1.40;1.00;;;;;;;;;;6332580;22;20023;-49
2022/10/20 11:06:41;;;;;;;0.98;0.82;;;;;;;;;;6331687;22;20097;-47
2022/10/20 11:09:20;;;;;;;2.30;0.95;;;;;;;;;;6333581;22;20029;-48
2022/10/20 11:12:31;;;;;;;2.15;1.00;;;;;;;;;;6331810;22;20441;-48
2022/10/20 11:14:59;;;;;;;1.83;1.00;;;;;;;;;;6333068;22;20023;-60
2022/10/20 11:17:39;;;;;;;0.90;0.70;;;;;;;;;;6333285;22;20095;-61
2022/10/20 11:20:13;;;;;;;7.68;1.20;;;;;;;;;;6331453;22;20025;-62
2022/10/20 11:22:50;;;;;;;1.27;0.93;;;;;;;;;;6331611;22;20093;-61
2022/10/20 11:25:20;;;;;;;0.90;0.75;;;;;;;;;;6333920;22;20022;-61
2022/10/20 11:27:57;;;;;;;0.65;0.65;;;;;;;;;;6332776;22;20093;-61
2022/10/20 11:30:33;;;;;;;2.17;0.90;;;;;;;;;;6332534;22;20356;-61
2022/10/20 11:33:14;;;;;;;1.20;0.80;;;;;;;;;;6333453;22;20168;-61
2022/10/20 11:35:51;;;;;;;4.13;0.75;;;;;;;;;;6331755;22;20048;-60
2022/10/20 11:38:21;;;;;;;2.67;1.00;;;;;;;;;;6332910;22;20029;-61
2022/10/20 11:40:58;;;;;;;3.85;1.05;;;;;;;;;;6332806;22;20037;-61
2022/10/20 11:43:34;;;;;;;3.72;0.88;;;;;;;;;;6331901;22;20545;-61
2022/10/20 11:46:11;;;;;;;1.27;0.68;;;;;;;;;;6332373;22;20023;-61
2022/10/20 11:48:38;;;;;;;1.50;0.85;;;;;;;;;;6333629;22;20096;-61
2022/10/20 11:51:34;;;;;;;1.17;0.82;;;;;;;;;;6331622;22;20019;-61
2022/10/20 11:54:01;;;;;;;;;;;;;;;;;;6332848;22;20088;-51
2022/10/20 11:56:50;;;;;;;3.25;1.02;;;;;;;;;;6331215;22;20217;-61
2022/10/20 11:59:36;;;;;;;2.92;0.95;;;;;;;;;;6305042;22;20094;-60
2022/10/20 12:02:26;;;;;;;1.05;0.85;;;;;;;;;;6333459;22;20090;-60
2022/10/20 12:05:06;;;;;;;1.20;0.80;;;;;;;;;;6330685;22;20635;-60
2022/10/20 12:07:58;;;;;;;2.15;0.90;;;;;;;;;;6332089;22;20121;-60
2022/10/20 12:11:02;;;;;;;2.03;1.08;;;;;;;;;;6332217;22;20052;-60
2022/10/20 12:13:55;;;;;;;2.40;1.20;;;;;;;;;;6331442;22;20022;-50
2022/10/20 12:16:41;;;;;;;2.17;0.93;;;;;;;;;;6332267;22;20025;-50
2022/10/20 12:19:29;;;;;;;2.17;0.98;;;;;;;;;;6331145;22;20019;-49
2022/10/20 12:22:09;;;;;;;;;;;;;;;;;;6333702;22;20019;-49
2022/10/20 12:24:36;;;;;;;1.50;0.95;;;;;;;;;;6331679;22;19919;-50
2022/10/20 12:27:10;;;;;;;4.57;1.10;;;;;;;;;;6332568;22;20094;-50
2022/10/20 12:29:38;;;;;;;2.03;1.20;;;;;;;;;;6332838;22;20046;-53
2022/10/20 12:32:23;;;;;;;1.70;0.98;;;;;;;;;;6332840;22;20089;-47
2022/10/20 12:35:18;;;;;;;1.70;1.08;;;;;;;;;;6332481;22;20072;-60
2022/10/20 12:38:16;;;;;;;2.22;0.93;;;;;;;;;;6332411;22;20079;-60
2022/10/20 12:40:53;;;;;;;5.47;1.25;;;;;;;;;;6332646;22;20050;-59
2022/10/20 12:43:35;;;;;;;1.05;0.80;;;;;;;;;;6332950;22;20098;-60
2022/10/20 12:46:06;;;;;;;3.97;0.95;;;;;;;;;;6331548;22;20098;-60
2022/10/20 12:48:42;;;;;;;3.60;1.00;;;;;;;;;;6332006;22;20528;-60
2022/10/20 12:51:22;;;;;;;2.90;1.00;;;;;;;;;;6332258;22;20025;-58
2022/10/20 12:53:58;;;;;;;2.38;0.70;;;;;;;;;;6331622;22;20126;-60
2022/10/20 12:56:27;;;;;;;1.90;0.80;;;;;;;;;;6330795;22;20026;-60
2022/10/20 12:59:06;;;;;;;1.38;0.70;;;;;;;;;;6333087;22;20014;-60
2022/10/20 13:01:52;;;;;;;1.67;0.80;;;;;;;;;;6330462;22;20022;-60
2022/10/20 13:04:45;;;;;;;1.58;0.70;;;;;;;;;;6331914;22;20031;-60
2022/10/20 13:07:12;;;;;;;2.50;0.43;;;;;;;;;;6332521;22;20022;-59
2022/10/20 13:09:55;;;;;;;2.88;0.63;;;;;;;;;;6331527;22;20033;-59
2022/10/20 13:12:39;;;;;;;2.55;0.50;;;;;;;;;;6331655;22;20341;-59
2022/10/20 13:15:15;;;;;;;0.75;0.50;;;;;;;;;;6332083;22;20023;-59
2022/10/20 13:17:55;;;;;;;1.38;0.68;;;;;;;;;;6330995;22;20097;-59
2022/10/20 13:20:41;;;;;;;3.15;0.60;;;;;;;;;;6301526;22;20023;-59
2022/10/20 13:23:16;;;;;;;1.38;0.73;;;;;;;;;;6298920;22;20034;-59
2022/10/20 13:25:54;;;;;;;1.90;0.60;;;;;;;;;;6300208;22;20019;-59
2022/10/20 13:28:28;;;;;;;7.20;0.70;;;;;;;;;;6301147;22;20511;-59
2022/10/20 13:30:55;;;;;;;2.67;0.77;;;;;;;;;;6300647;22;20023;-60
2022/10/20 13:33:42;;;;;;;0.77;0.50;;;;;;;;;;6299883;22;20114;-58
2022/10/20 13:36:29;;;;;;;;;;;;;;;;;;6299736;22;20026;-58
2022/10/20 13:39:16;;;;;;;1.67;0.50;;;;;;;;;;6300083;22;19997;-59
2022/10/20 13:41:48;;;;;;;3.38;0.70;;;;;;;;;;6300117;22;20101;-59
2022/10/20 13:44:30;;;;;;;6.18;0.77;;;;;;;;;;6300411;22;20023;-59
2022/10/20 13:47:07;;;;;;;1.20;0.47;;;;;;;;;;6299619;22;20364;-59
2022/10/20 13:50:04;;;;;;;1.92;0.70;;;;;;;;;;6299541;22;20490;-59
2022/10/20 13:52:37;;;;;;;4.30;0.65;;;;;;;;;;6300190;22;20026;-60
2022/10/20 13:55:20;;;;;;;4.03;0.65;;;;;;;;;;6299946;22;20522;-60
2022/10/20 13:57:50;;;;;;;6.75;0.55;;;;;;;;;;6299710;22;20016;-60
2022/10/20 14:00:35;;;;;;;2.42;0.60;;;;;;;;;;6300829;22;20552;-59
2022/10/20 14:03:03;;;;;;;1.30;0.80;;;;;;;;;;6297079;22;20027;-59
2022/10/20 14:05:38;;;;;;;1.92;0.50;;;;;;;;;;6300015;22;20102;-48
2022/10/20 14:08:09;;;;;;;3.13;0.50;;;;;;;;;;6300200;22;20023;-47
2022/10/20 14:10:43;;;;;;;1.38;0.80;;;;;;;;;;6299551;22;20034;-60
2022/10/20 14:13:18;;;;;;;1.95;0.57;;;;;;;;;;6299054;22;20690;-60
2022/10/20 14:15:59;;;;;;;0.90;0.60;;;;;;;;;;6299906;22;20019;-59
2022/10/20 14:18:31;;;;;;;2.45;0.45;;;;;;;;;;6304192;22;20018;-59
2022/10/20 14:21:12;;;;;;;3.97;0.70;;;;;;;;;;6330057;22;20337;-59
2022/10/20 14:23:40;;;;;;;1.50;0.60;;;;;;;;;;6331623;22;20102;-60
2022/10/20 14:26:19;;;;;;;0.85;0.55;;;;;;;;;;6330450;22;20018;-59
2022/10/20 14:28:48;;;;;;;0.65;0.40;;;;;;;;;;6332704;22;20722;-60
2022/10/20 14:31:22;;;;;;;2.40;0.47;;;;;;;;;;6334199;22;20027;-60
2022/10/20 14:33:51;;;;;;;1.75;0.60;;;;;;;;;;6332822;22;20535;-59
2022/10/20 14:36:22;;;;;;;3.15;1.40;;;;;;;;;;6334320;22;20539;-60
2022/10/20 14:38:59;;;;;;;3.38;2.22;;;;;;;;;;6333579;22;20022;-59
2022/10/20 14:41:28;;;;;;;23.13;2.63;;;;;;;;;;6333315;22;20080;-59
2022/10/20 14:44:06;;;;;;;1.40;1.08;;;;;;;;;;6308124;22;20515;-59
2022/10/20 14:46:45;;;;;;;1.55;0.80;;;;;;;;;;6309044;22;20518;-46
2022/10/20 14:49:37;;;;;;;5.40;1.05;;;;;;;;;;6333932;22;20023;-59
2022/10/20 14:52:05;;;;;;;2.90;0.90;;;;;;;;;;6334569;22;20015;-59
2022/10/20 14:54:45;;;;;;;1.83;0.60;;;;;;;;;;6333765;22;20456;-59
2022/10/20 14:57:13;;;;;;;1.50;0.55;;;;;;;;;;6306172;22;20819;-59
2022/10/20 14:59:50;;;;;;;6.18;0.90;;;;;;;;;;6333796;22;20019;-58
2022/10/20 15:02:19;;;;;;;0.95;0.50;;;;;;;;;;6332780;22;20027;-59
2022/10/20 15:04:54;;;;;;;1.83;0.93;;;;;;;;;;6333516;22;20019;-59
2022/10/20 15:07:21;;;;;;;1.02;0.77;;;;;;;;;;6333882;22;20018;-50
2022/10/20 15:09:57;;;;;;;0.90;0.60;;;;;;;;;;6332306;22;20363;-48
2022/10/20 15:12:32;;;;;;;0.88;0.57;;;;;;;;;;6333636;22;20019;-48
2022/10/20 15:15:26;;;;;;;1.40;0.85;;;;;;;;;;6332336;22;20463;-47
2022/10/20 15:18:05;;;;;;;1.30;0.80;;;;;;;;;;6332366;22;20534;-46
2022/10/20 15:20:47;;;;;;;8.38;0.90;;;;;;;;;;6328297;22;20033;-50
2022/10/20 15:23:16;;;;;;;3.40;0.90;;;;;;;;;;6329628;22;20023;-59
2022/10/20 15:26:03;;;;;;;5.07;0.80;;;;;;;;;;6329700;22;20019;-58
2022/10/20 15:28:34;;;;;;;3.60;0.90;;;;;;;;;;6329102;22;20145;-57